Flight Track Log - Related Links

Times and Time Zones

All times are in EDT time to prevent confusion due to time zone crossing. See the UAL614 flight status page for this flight to view local times or setup timezone preferences in your user account.


Time Position Orientation Groundspeed Altitude Reporting Facility
EDT Latitude Longitude Course Direction KTS MPH feet Rate Location/Type
Tue 02:15:37 PM 42.0000 -87.8500 90° East 165 190 2,700  Level Chicago TRACON
Tue 02:16:25 PM 41.9953 -87.7919 96° East 195 224 4,000 2,564 Climbing Chicago Center
Tue 02:17:27 PM 41.9867 -87.6869 96° East 259 298 7,400 3,145 Climbing Chicago Center
Tue 02:18:00 PM 41.9422 -87.2640 96° East  Level FlightAware Approximate
Tue 02:18:29 PM 41.9800 -87.5761 95° East 293 337 10,500  Level Chicago Center
Tue 02:19:00 PM 41.9333 -87.1052 90° East  Level FlightAware Approximate
Tue 02:19:31 PM 41.9708 -87.4575 96° East 315 362 13,300  Level Chicago Center
Tue 02:20:00 PM 41.9333 -86.9458 90° East  Level FlightAware Approximate
Tue 02:20:33 PM 41.9600 -87.2850 95° East 383 441 15,500  Level Chicago Center
Tue 02:21:35 PM 41.9503 -87.1356 95° East 401 461 17,800 2,177 Climbing Chicago Center
Tue 02:22:37 PM 41.9436 -86.9789 93° East 415 478 20,000 1,935 Climbing Chicago Center
Tue 02:23:39 PM 41.9481 -86.8158 88° East 435 501 21,800 1,839 Climbing Chicago Center
Tue 02:24:41 PM 41.9511 -86.6372 89° East 450 518 23,800 1,790 Climbing Chicago Center
Tue 02:25:43 PM 41.9519 -86.4628 90° East 464 534 25,500 1,597 Climbing Chicago Center
Tue 02:26:45 PM 41.9544 -86.2850 89° East 473 544 27,100 1,355 Climbing Chicago Center
Tue 02:27:47 PM 41.9325 -86.1047 99° East 485 558 28,300 1,113 Climbing Chicago Center
Tue 02:28:49 PM 41.8917 -85.8944 105° East 487 560 29,400 1,210 Climbing Chicago Center
Tue 02:29:51 PM 41.8575 -85.7175 104° East 488 562 30,800 1,248 Climbing Chicago Center
Tue 02:30:54 PM 41.8219 -85.5342 105° East 499 574 32,000 1,392 Climbing Chicago Center
Tue 02:31:56 PM 41.7844 -85.3469 105° East 506 582 33,700 1,500 Climbing Chicago Center
Tue 02:32:58 PM 41.7461 -85.1614 105° East 507 583 35,100 1,161 Climbing Chicago Center
Tue 02:34:00 PM 41.7078 -84.9786 106° East 509 586 36,100 919 Climbing Chicago Center
Tue 02:35:02 PM 41.6719 -84.7944 105° East 510 587 37,000 454 Climbing Chicago Center
Tue 02:35:59 PM 41.6494 -84.6103 99° East 503 579 37,000  Level Cleveland Center
Tue 02:36:59 PM 41.6056 -84.4297 108° East 503 579 37,000  Level Cleveland Center
Tue 02:37:59 PM 41.5556 -84.2381 109° East 503 579 37,000  Level Cleveland Center
Tue 02:38:59 PM 41.5111 -84.0606 108° East 503 579 37,000  Level Cleveland Center
Tue 02:39:59 PM 41.4683 -83.8836 108° East 503 579 37,000  Level Cleveland Center
Tue 02:40:59 PM 41.4231 -83.7097 109° East 503 579 37,000  Level Cleveland Center
Tue 02:41:59 PM 41.3778 -83.5331 109° East 503 579 37,000  Level Cleveland Center
Tue 02:42:59 PM 41.3322 -83.3569 109° East 503 579 37,000  Level Cleveland Center
Tue 02:43:59 PM 41.2883 -83.1836 109° East 503 579 37,000  Level Cleveland Center
Tue 02:44:59 PM 41.2442 -83.0106 109° East 497 572 37,000  Level Cleveland Center
Tue 02:45:59 PM 41.1978 -82.8350 109° East 492 566 37,000  Level Cleveland Center
Tue 02:46:59 PM 41.1531 -82.6625 109° East 492 566 37,000  Level Cleveland Center
Tue 02:47:59 PM 41.1061 -82.4847 109° East 497 572 37,000  Level Cleveland Center
Tue 02:48:59 PM 41.0631 -82.3153 109° East 497 572 37,000  Level Cleveland Center
Tue 02:49:59 PM 41.0133 -82.1433 111° Southeast 497 572 37,000  Level Cleveland Center
Tue 02:50:59 PM 40.9675 -81.9692 109° East 497 572 37,000  Level Cleveland Center
Tue 02:51:59 PM 40.9194 -81.8006 111° Southeast 491 565 37,000  Level Cleveland Center
Tue 02:52:59 PM 40.8458 -81.6564 124° Southeast 479 551 37,000  Level Cleveland Center
Tue 02:53:59 PM 40.7592 -81.5533 138° Southeast 467 537 37,000  Level Cleveland Center
Tue 02:54:59 PM 40.6497 -81.4453 143° Southeast 457 526 37,000  Level Cleveland Center
Tue 02:55:59 PM 40.5628 -81.3511 141° Southeast 457 526 37,000  Level Cleveland Center
Tue 02:56:59 PM 40.4508 -81.2406 143° Southeast 457 526 37,000  Level Cleveland Center
Tue 02:57:59 PM 40.3492 -81.1417 143° Southeast 457 526 37,000  Level Cleveland Center
Tue 02:58:59 PM 40.2475 -81.0508 146° Southeast 457 526 37,000  Level Cleveland Center
Tue 02:59:59 PM 40.1519 -80.9497 141° Southeast 445 512 37,000  Level Cleveland Center
Tue 03:00:59 PM 40.0586 -80.8544 142° Southeast 440 506 37,000 -350 Level Cleveland Center
Tue 03:01:59 PM 39.9711 -80.7483 137° Southeast 435 501 36,300 -850 Descending Cleveland Center
Tue 03:02:59 PM 39.8836 -80.6292 134° Southeast 440 506 35,300 -1,000 Descending Cleveland Center
Tue 03:03:59 PM 39.8003 -80.5128 133° Southeast 440 506 34,300 -650 Descending Cleveland Center
Tue 03:04:59 PM 39.7169 -80.3969 133° Southeast 440 506 34,000 -350 Descending Cleveland Center
Tue 03:05:59 PM 39.6311 -80.2811 134° Southeast 440 506 33,600 -700 Descending Cleveland Center
Tue 03:06:59 PM 39.5475 -80.1658 133° Southeast 440 506 32,600 -990 Descending Cleveland Center
Tue 03:07:36 PM 39.4961 -80.0964 134° Southeast 441 507 32,000 -918 Descending Washington Center
Tue 03:08:37 PM 39.4108 -79.9808 134° Southeast 441 507 31,100 -504 Descending Washington Center
Tue 03:09:35 PM 39.3319 -79.8553 129° Southeast 446 513 31,000 -559 Descending Washington Center
Tue 03:10:35 PM 39.2875 -79.6944 110° East 451 519 30,000 -1,190 Descending Washington Center
Tue 03:11:36 PM 39.2742 -79.5275 96° East 456 525 28,600 -1,426 Descending Washington Center
Tue 03:12:37 PM 39.2589 -79.3578 97° East 463 533 27,100 -1,361 Descending Washington Center
Tue 03:13:35 PM 39.2447 -79.2122 97° East 463 533 25,900 -1,261 Descending Washington Center
Tue 03:14:36 PM 39.2328 -79.0511 95° East 463 533 24,600 -1,388 Descending Washington Center
Tue 03:15:36 PM 39.2183 -78.8950 97° East 452 520 23,100 -1,613 Descending Washington Center
Tue 03:16:35 PM 39.2036 -78.7442 97° East 433 498 21,400 -1,664 Descending Washington Center
Tue 03:17:35 PM 39.1886 -78.5989 98° East 421 484 19,800 -1,636 Descending Washington Center
Tue 03:18:36 PM 39.1733 -78.4536 98° East 410 472 18,100 -1,574 Descending Washington Center
Tue 03:19:37 PM 39.1536 -78.3164 100° East 399 459 16,600 -1,424 Descending Washington Center
Tue 03:20:34 PM 39.1208 -78.1894 108° East 384 442 15,300 -1,261 Descending Washington Center
Tue 03:21:36 PM 39.0881 -78.0706 110° East 366 421 14,100 -1,171 Descending Washington Center
Tue 03:22:37 PM 39.0592 -77.9519 107° East 356 410 12,900 -1,210 Descending Washington Center
Tue 03:23:35 PM 39.0322 -77.8389 107° East 343 395 11,700 -1,220 Descending Washington Center
Tue 03:24:35 PM 38.9969 -77.7097 109° East 343 395 10,500 -1,266 Descending Washington Center
Tue 03:25:24 PM 38.9667 -77.6167 113° Southeast 302 348 9,400 -1,101 Descending Potomac TRACON
Tue 03:26:24 PM 38.9500 -77.5167 102° East 300 345 8,500 -1,000 Descending Potomac TRACON
Tue 03:27:24 PM 38.9167 -77.4167 113° Southeast 297 342 7,400 -1,100 Descending Potomac TRACON
Tue 03:28:24 PM 38.8667 -77.3333 128° Southeast 295 339 6,300 -700 Descending Potomac TRACON
Tue 03:29:24 PM 38.8333 -77.2500 117° Southeast 261 300 6,000 -150 Descending Potomac TRACON
Tue 03:30:24 PM 38.8000 -77.1833 123° Southeast 240 276 6,000 -105 Level Potomac TRACON
Tue 03:31:18 PM 38.7667 -77.1167 123° Southeast 241 277 5,800 -789 Descending Potomac TRACON
Tue 03:32:18 PM 38.7000 -77.1000 169° South 240 276 4,500 -900 Descending Potomac TRACON
Tue 03:33:18 PM 38.6333 -77.0833 169° South 224 258 4,000 -600 Descending Potomac TRACON
Tue 03:34:18 PM 38.6333 -77.0167 90° East 190 219 3,300 -750 Descending Potomac TRACON
Tue 03:35:18 PM 38.6667 -77.0167 360° North 156 180 2,500 -800 Descending Potomac TRACON

Login

Don't have an account? Register now (free) for customized features, flight alerts, and more!